• Join FlightAware (Why Join?)
  • Login
  • US Flag 
06:31PM EDT


 

Airport Tracker/Info


-or-


 

Live Flight TrackerFlight Track Log ✈ FAO9000 ✈ 18-Mar-2014 ✈ KMCO - KIAD

Flight Track Log - Related Links

Times and Time Zones

All times are in EDT time to prevent confusion due to time zone crossing. See the FAO9000 flight status page for this flight to view local times or setup timezone preferences in your user account.

Time Position Orientation Groundspeed Altitude Reporting Facility
EDT Latitude Longitude Course Direction KTS MPH feet Rate Location/Type
10:25AM 28.4333 -81.3167 360° North 166 191 900  Level Orlando TRACON
10:26AM 28.5000 -81.3167 360° North 216 249 4,100 3,000 Climbing Orlando TRACON
10:27AM 28.5667 -81.3167 360° North 281 323 7,000 3,000 Climbing Orlando TRACON
10:29AM 28.7103 -81.3350 354° North 318 366 12,500 2,700 Climbing Jacksonville Center
10:30AM 28.8064 -81.3500 352° North 325 374 14,700 2,520 Climbing Jacksonville Center
10:31AM 28.9089 -81.3603 355° North 345 397 17,500 2,700 Climbing Jacksonville Center
10:32AM 29.0156 -81.3778 352° North 368 423 20,100 2,400 Climbing Jacksonville Center
10:33AM 29.1303 -81.3903 355° North 389 448 22,400 2,220 Climbing Jacksonville Center
10:34AM 29.2392 -81.4172 348° North 399 459 24,600 1,980 Climbing Jacksonville Center
10:35AM 29.3400 -81.4728 334° Northwest 399 459 26,400 1,980 Climbing Jacksonville Center
10:36AM 29.4428 -81.5261 336° Northwest 399 459 28,700 2,100 Climbing Jacksonville Center
10:37AM 29.5539 -81.5581 346° North 399 459 30,600 1,680 Climbing Jacksonville Center
10:38AM 29.6750 -81.5517 North 404 465 32,100 1,200 Climbing Jacksonville Center
10:39AM 29.8125 -81.5400 North 432 497 33,000 1,200 Climbing Jacksonville Center
10:40AM 29.9336 -81.5336 North 440 506 34,600 1,380 Climbing Jacksonville Center
10:41AM 30.0525 -81.5294 North 435 501 35,800 960 Climbing Jacksonville Center
10:42AM 30.1694 -81.5206 North 423 487 36,600 600 Climbing Jacksonville Center
10:43AM 30.2903 -81.5167 North 423 487 37,000 180 Climbing Jacksonville Center
10:44AM 30.4133 -81.5028 North 423 487 37,000  Level Jacksonville Center
10:45AM 30.5367 -81.4961 North 429 494 37,000  Level Jacksonville Center
10:46AM 30.6575 -81.4847 North 434 499 37,000  Level Jacksonville Center
10:47AM 30.7786 -81.4781 North 434 499 37,000  Level Jacksonville Center
10:48AM 30.9017 -81.4689 North 434 499 37,000  Level Jacksonville Center
10:49AM 31.0206 -81.4575 North 434 499 37,000  Level Jacksonville Center
10:50AM 31.1414 -81.4483 North 434 499 37,000  Level Jacksonville Center
10:51AM 31.2603 -81.4367 North 425 489 37,000  Level Jacksonville Center
10:52AM 31.3792 -81.4058 12° North 431 496 37,000  Level Jacksonville Center
10:53AM 31.4853 -81.3772 13° North 432 497 37,000  Level Jacksonville Center
10:54AM 31.6183 -81.3286 17° North 432 497 37,000  Level Jacksonville Center
10:55AM 31.7197 -81.2586 30° Northeast 458 527 37,000  Level Jacksonville Center
10:56AM 31.8436 -81.1636 33° Northeast 475 547 37,000  Level Jacksonville Center
10:57AM 31.9572 -81.0781 33° Northeast 482 555 37,000  Level Jacksonville Center
10:58AM 32.0583 -80.9978 34° Northeast 477 549 37,000  Level Jacksonville Center
10:59AM 32.1844 -80.9042 32° Northeast 480 552 37,000  Level Jacksonville Center
11:00AM 32.2833 -80.8283 33° Northeast 475 547 37,000  Level Jacksonville Center
11:01AM 32.4050 -80.7322 34° Northeast 480 552 37,000  Level Jacksonville Center
11:02AM 32.5161 -80.6483 32° Northeast 474 545 37,000  Level Jacksonville Center
11:03AM 32.6272 -80.5617 33° Northeast 473 544 37,000  Level Jacksonville Center
11:04AM 32.7383 -80.4772 33° Northeast 473 544 37,000  Level Jacksonville Center
11:05AM 32.8561 -80.4147 24° Northeast 463 533 37,000  Level Jacksonville Center
11:06AM 32.9781 -80.3494 24° Northeast 457 526 37,000  Level Jacksonville Center
11:07AM 33.0875 -80.2942 23° Northeast 450 518 37,000  Level Jacksonville Center
11:08AM 33.2072 -80.2311 24° Northeast 450 518 37,000  Level Jacksonville Center
11:09AM 33.3147 -80.1758 23° Northeast 457 526 37,000  Level Jacksonville Center
11:10AM 33.4261 -80.1178 24° Northeast 452 520 37,000  Level Jacksonville Center
11:11AM 33.5436 -80.0542 24° Northeast 446 513 37,000  Level Jacksonville Center
11:12AM 33.6611 -79.9931 23° Northeast 451 519 37,000  Level Jacksonville Center
11:13AM 33.7767 -79.9317 24° Northeast 451 519 37,000  Level Jacksonville Center
11:15AM 33.9931 -79.8147 24° Northeast 446 513 37,000  Level Washington Center
11:16AM 34.0928 -79.7619 24° Northeast 446 513 37,000  Level Washington Center
11:17AM 34.2119 -79.7003 23° Northeast 446 513 37,000  Level Washington Center
11:18AM 34.3289 -79.6356 25° Northeast 451 519 37,000  Level Washington Center
11:19AM 34.4436 -79.5733 24° Northeast 451 519 37,000  Level Washington Center
11:20AM 34.5603 -79.5108 24° Northeast 451 519 37,000  Level Washington Center
11:21AM 34.6772 -79.4483 24° Northeast 446 513 37,000 -360 Level Washington Center
11:22AM 34.7919 -79.3856 24° Northeast 446 513 36,300 -840 Descending Washington Center
11:23AM 34.9022 -79.3247 24° Northeast 446 513 35,400 -720 Descending Washington Center
11:24AM 35.0125 -79.2639 24° Northeast 441 507 35,000 -240 Descending Washington Center
11:25AM 35.1231 -79.2031 24° Northeast 436 502 35,000  Level Washington Center
11:26AM 35.2375 -79.1394 24° Northeast 436 502 35,000  Level Washington Center
11:27AM 35.3500 -79.0783 24° Northeast 442 509 35,000  Level Washington Center
11:28AM 35.4644 -79.0169 24° Northeast 442 509 35,000  Level Washington Center
11:29AM 35.5894 -78.9481 24° Northeast 447 514 35,000 -300 Level Washington Center
11:30AM 35.7061 -78.8842 24° Northeast 447 514 34,400 -1,080 Descending Washington Center
11:31AM 35.8206 -78.8197 25° Northeast 447 514 32,900 -1,620 Descending Washington Center
11:32AM 35.9347 -78.7550 25° Northeast 447 514 31,300 -1,620 Descending Washington Center
11:33AM 36.0514 -78.6878 25° Northeast 447 514 29,700 -1,620 Descending Washington Center
11:34AM 36.1678 -78.6228 24° Northeast 447 514 28,100 -1,380 Descending Washington Center
11:35AM 36.2822 -78.5553 25° Northeast 447 514 27,000 -600 Descending Washington Center
11:36AM 36.3983 -78.4925 24° Northeast 447 514 27,000 -60 Level Washington Center
11:37AM 36.5106 -78.4269 25° Northeast 447 514 26,900 -1,080 Descending Washington Center
11:38AM 36.6247 -78.3611 25° Northeast 447 514 24,900 -1,920 Descending Washington Center
11:39AM 36.7264 -78.3000 26° Northeast 447 514 23,100 -1,500 Descending Washington Center
11:40AM 36.8300 -78.2361 26° Northeast 433 498 22,000 -600 Descending Washington Center
11:41AM 36.9378 -78.1775 23° Northeast 423 487 22,000  Level Washington Center
11:42AM 37.0433 -78.1133 26° Northeast 423 487 22,000  Level Washington Center
11:43AM 37.1511 -78.0517 25° Northeast 423 487 22,000  Level Washington Center
11:44AM 37.2608 -77.9875 25° Northeast 423 487 22,000  Level Washington Center
11:45AM 37.3664 -77.9228 26° Northeast 423 487 22,000  Level Washington Center
11:46AM 37.4761 -77.8606 24° Northeast 423 487 22,000  Level Washington Center
11:47AM 37.5858 -77.7958 25° Northeast 428 493 22,000 -780 Level Washington Center
11:48AM 37.6933 -77.7333 25° Northeast 428 493 20,500 -2,040 Descending Washington Center
11:49AM 37.7964 -77.6731 25° Northeast 418 481 18,000 -2,520 Descending Washington Center
11:50AM 37.8933 -77.6153 25° Northeast 397 457 15,600 -2,880 Descending Washington Center
11:51AM 37.9883 -77.5572 26° Northeast 383 441 12,300 -2,820 Descending Washington Center
11:52AM 38.0828 -77.5069 23° Northeast 377 434 10,000 -1,140 Descending Washington Center
11:53AM 38.1628 -77.4589 25° Northeast 343 395 10,100  Climbing Washington Center
11:54AM 38.2367 -77.4131 26° Northeast 308 354 10,100 -300 Level Washington Center
11:55AM 38.3122 -77.3700 24° Northeast 296 341 9,500 -1,140 Descending Washington Center
11:56AM 38.3917 -77.3586 North 289 333 7,900 -1,200 Descending Washington Center
11:57AM 38.4708 -77.3606 359° North 284 327 7,100 -420 Descending Washington Center
11:58AM 38.5522 -77.3650 358° North 279 321 7,100 -180 Level Washington Center
11:59AM 38.6225 -77.4039 337° Northwest 279 321 6,800 -1,020 Descending Washington Center
12:00PM 38.6950 -77.4350 341° North 272 313 5,100 -1,680 Descending Washington Center
12:01PM 38.7614 -77.4500 350° North 256 295 3,600 -1,020 Descending Washington Center
12:02PM 38.8167 -77.4667 347° North 147 169 2,900 -780 Descending Potomac TRACON
12:03PM 38.8500 -77.4667 360° North 125 144 2,000 -900 Descending Potomac TRACON
12:04PM 38.8833 -77.4667 360° North 120 138 1,200 -720 Descending Potomac TRACON
12:05PM 38.9333 -77.4667 360° North 123 142 500 -660 Descending Potomac TRACON
12:07PM 38.9333 -77.4500 349° North  Level FlightAware Approximate
12:14PM 38.9474 -77.4599 349° North  Level Estimated
12:15PM 38.9474 -77.4599 349° North  Level Estimated
12:16PM 38.9474 -77.4599 349° North  Level Estimated
12:17PM 38.9474 -77.4599 349° North  Level Estimated
12:18PM 38.9474 -77.4599 349° North  Level Estimated